createdAt,value
2022-12-20T00:00:14.608Z,28
2022-12-20T00:01:22.710Z,27.3
2022-12-20T00:02:35.069Z,29.2
2022-12-20T00:03:42.123Z,27.6
2022-12-20T00:04:50.207Z,27.9
2022-12-20T00:05:57.594Z,27.8
2022-12-20T00:07:05.007Z,27.9
2022-12-20T00:08:12.133Z,27.4
2022-12-20T00:09:20.128Z,30
2022-12-20T00:10:27.248Z,28
2022-12-20T00:11:34.605Z,26.2
2022-12-20T00:12:41.710Z,26
2022-12-20T00:13:48.705Z,26.6
2022-12-20T00:14:55.764Z,28.8
2022-12-20T00:16:03.662Z,29.2
2022-12-20T00:17:13.500Z,27.2
2022-12-20T00:18:20.685Z,27.8
2022-12-20T00:19:28.669Z,27.1
2022-12-20T00:20:36.852Z,26.7
2022-12-20T00:21:44.138Z,26.6
2022-12-20T00:22:51.139Z,28
2022-12-20T00:23:58.280Z,26.6
2022-12-20T00:25:06.323Z,25.6
2022-12-20T00:26:13.579Z,25
2022-12-20T00:27:20.892Z,25.5
2022-12-20T00:28:27.888Z,26
2022-12-20T00:29:35.456Z,27.5
2022-12-20T00:30:42.655Z,25.8
2022-12-20T00:31:50.652Z,25.2
2022-12-20T00:32:58.765Z,26.3
2022-12-20T00:34:06.125Z,27.1
2022-12-20T00:35:13.162Z,26.2
2022-12-20T00:36:21.141Z,25.5
2022-12-20T00:37:28.472Z,23.1
2022-12-20T00:38:35.701Z,24.7
2022-12-20T00:39:42.844Z,25.7
2022-12-20T00:40:51.554Z,25.7
2022-12-20T00:42:06.992Z,25.3
2022-12-20T00:43:14.527Z,24.5
2022-12-20T00:44:21.786Z,24.3
2022-12-20T00:45:28.855Z,24.7
2022-12-20T00:46:36.090Z,25.2
2022-12-20T00:47:43.351Z,23.7
2022-12-20T00:48:51.551Z,25.2
2022-12-20T00:49:59.127Z,24.8
2022-12-20T00:51:06.776Z,24.6
2022-12-20T00:52:17.615Z,26.8
2022-12-20T00:53:26.597Z,26.2
2022-12-20T00:54:32.925Z,24.2
2022-12-20T00:55:40.097Z,24.4
2022-12-20T00:56:47.983Z,28.7
2022-12-20T00:57:55.249Z,27.6
2022-12-20T00:59:02.590Z,32.2
2022-12-20T01:00:10.822Z,30.2
2022-12-20T01:01:18.321Z,32.6
2022-12-20T01:02:28.617Z,29.6
2022-12-20T01:03:36.686Z,29.1
2022-12-20T01:04:44.120Z,29
2022-12-20T01:05:52.395Z,29.7
2022-12-20T01:06:59.461Z,27.7
2022-12-20T01:08:06.923Z,28.7
2022-12-20T01:09:15.591Z,28.3
2022-12-20T01:10:23.129Z,27.4
2022-12-20T01:11:31.402Z,27.3
2022-12-20T01:12:38.619Z,27.9
2022-12-20T01:13:46.528Z,26.5
2022-12-20T01:14:53.800Z,30.5
2022-12-20T01:16:01.904Z,29.2
2022-12-20T01:17:12.183Z,32
2022-12-20T01:18:20.170Z,30.1
2022-12-20T01:19:27.350Z,27.1
2022-12-20T01:20:34.640Z,27.4
2022-12-20T01:21:42.963Z,25.2
2022-12-20T01:22:50.267Z,26.8
2022-12-20T01:23:58.367Z,27.5
2022-12-20T01:25:05.752Z,26.2
2022-12-20T01:26:13.363Z,31.5
2022-12-20T01:27:20.367Z,27.6
2022-12-20T01:28:27.459Z,30.3
2022-12-20T01:29:35.438Z,28.1
2022-12-20T01:30:45.252Z,28.5
2022-12-20T01:31:52.384Z,30.4
2022-12-20T01:32:59.439Z,28.3
2022-12-20T01:34:06.502Z,28.7
2022-12-20T01:35:13.738Z,27.6
2022-12-20T01:36:20.886Z,27.8
2022-12-20T01:37:31.228Z,27.5
2022-12-20T01:38:39.486Z,26.5
2022-12-20T01:39:46.683Z,28.6
2022-12-20T01:40:54.237Z,30
2022-12-20T01:42:01.460Z,30.3
2022-12-20T01:43:08.571Z,30
2022-12-20T01:44:15.695Z,26.4
2022-12-20T01:45:22.846Z,27
2022-12-20T01:46:30.134Z,28.9
2022-12-20T01:47:37.631Z,26.7
2022-12-20T01:48:44.608Z,28
2022-12-20T01:49:58.411Z,26.4
2022-12-20T01:51:05.456Z,28.4
2022-12-20T01:52:14.389Z,25.1
2022-12-20T01:53:21.796Z,25.5
2022-12-20T01:54:28.878Z,26.6
2022-12-20T01:55:36.002Z,26.1
2022-12-20T01:56:43.983Z,26.9
2022-12-20T01:57:51.135Z,24.3
2022-12-20T01:59:04.623Z,27.2
2022-12-20T02:00:12.375Z,24.6
2022-12-20T02:01:19.841Z,24.8
2022-12-20T02:02:28.918Z,23.7
2022-12-20T02:03:36.361Z,23.8
2022-12-20T02:04:43.630Z,23.5
2022-12-20T02:05:50.721Z,27.1
2022-12-20T02:06:57.935Z,24.6
2022-12-20T02:08:04.967Z,23.7
2022-12-20T02:09:12.036Z,25.5
2022-12-20T02:10:19.902Z,23.4
2022-12-20T02:11:26.741Z,25.2
2022-12-20T02:12:44.254Z,24.9
2022-12-20T02:13:51.770Z,25
2022-12-20T02:14:59.831Z,25.5
2022-12-20T02:16:12.297Z,26.2
2022-12-20T02:17:20.155Z,24.2
2022-12-20T02:18:37.949Z,27.6
2022-12-20T02:19:44.863Z,29.4
2022-12-20T02:20:59.951Z,29.2
2022-12-20T02:22:10.319Z,27
2022-12-20T02:23:27.682Z,27.2
2022-12-20T02:24:41.390Z,27.2
2022-12-20T02:25:58.818Z,25.3
2022-12-20T02:27:14.718Z,26.3
2022-12-20T02:28:27.368Z,26.2
2022-12-20T02:29:34.275Z,25
2022-12-20T02:30:41.676Z,27.2
2022-12-20T02:31:49.013Z,26
2022-12-20T02:32:57.018Z,24.1
2022-12-20T02:34:06.274Z,25.4
2022-12-20T02:35:13.472Z,27.9
2022-12-20T02:36:24.507Z,25.4
2022-12-20T02:37:31.753Z,22.6
2022-12-20T02:38:39.013Z,27.3
2022-12-20T02:39:46.830Z,26.8
2022-12-20T02:40:54.102Z,24.4
2022-12-20T02:42:01.351Z,24
2022-12-20T02:43:10.913Z,22.6
2022-12-20T02:44:23.276Z,24.2
2022-12-20T02:45:35.549Z,24.1
2022-12-20T02:46:42.397Z,24.8
2022-12-20T02:47:49.564Z,27.5
2022-12-20T02:48:56.605Z,26.8
2022-12-20T02:50:03.842Z,24.5
2022-12-20T02:51:10.937Z,23.4
2022-12-20T02:52:18.587Z,25
2022-12-20T02:53:26.467Z,27.4
2022-12-20T02:54:33.283Z,27.5
2022-12-20T02:55:40.456Z,27
2022-12-20T02:56:52.535Z,25.5
2022-12-20T02:58:00.466Z,25.9
2022-12-20T02:59:06.985Z,26
2022-12-20T03:00:17.772Z,24.3
2022-12-20T03:01:25.771Z,25.8
2022-12-20T03:02:38.204Z,24.9
2022-12-20T03:03:51.030Z,26.3
2022-12-20T03:04:59.137Z,27.6
2022-12-20T03:06:06.363Z,24.8
2022-12-20T03:07:14.521Z,24.1
2022-12-20T03:08:22.035Z,24
2022-12-20T03:09:30.543Z,23.6
2022-12-20T03:10:37.574Z,24.3
2022-12-20T03:11:45.198Z,24.6
2022-12-20T03:12:52.461Z,23.4
2022-12-20T03:13:59.921Z,27.9
2022-12-20T03:15:07.724Z,26.9
2022-12-20T03:16:15.218Z,26.3
2022-12-20T03:17:23.766Z,27
2022-12-20T03:18:30.845Z,23.9
2022-12-20T03:19:39.007Z,25.7
2022-12-20T03:20:45.826Z,25.4
2022-12-20T03:21:53.895Z,25.9
2022-12-20T03:23:01.289Z,25.8
2022-12-20T03:24:08.260Z,26.1
2022-12-20T03:25:15.506Z,23.9
2022-12-20T03:26:23.633Z,24.9
2022-12-20T03:27:30.705Z,25.7
2022-12-20T03:28:37.849Z,24.6
2022-12-20T03:29:44.730Z,25.4
2022-12-20T03:30:52.260Z,25.4
2022-12-20T03:31:59.489Z,25.4
2022-12-20T03:33:06.904Z,25.4
2022-12-20T03:34:13.870Z,25.5
2022-12-20T03:35:20.990Z,25.4
2022-12-20T03:36:28.392Z,25.7
2022-12-20T03:37:35.706Z,25.1
2022-12-20T03:38:42.858Z,25.3
2022-12-20T03:39:50.288Z,28.6
2022-12-20T03:40:57.569Z,26.6
2022-12-20T03:42:05.513Z,25.8
2022-12-20T03:43:12.786Z,26.1
2022-12-20T03:44:19.854Z,27
2022-12-20T03:45:27.055Z,27.7
2022-12-20T03:46:34.306Z,24.7
2022-12-20T03:47:41.409Z,23.8
2022-12-20T03:48:49.258Z,26.3
2022-12-20T03:49:56.559Z,24.2
2022-12-20T03:51:03.628Z,26.7
2022-12-20T03:52:10.803Z,28.9
2022-12-20T03:53:18.185Z,27.2
2022-12-20T03:54:25.287Z,26.4
2022-12-20T03:55:32.127Z,28.1
2022-12-20T03:56:40.318Z,27.9
2022-12-20T03:57:47.293Z,27.1
2022-12-20T03:58:54.720Z,26.2
2022-12-20T04:00:02.574Z,26.9
2022-12-20T04:01:09.798Z,26.7
2022-12-20T04:02:20.095Z,30.6
2022-12-20T04:03:27.343Z,28.7
2022-12-20T04:04:34.732Z,29.6
2022-12-20T04:05:43.101Z,30.4
2022-12-20T04:06:50.213Z,32.9
2022-12-20T04:07:57.490Z,31.2
2022-12-20T04:09:06.142Z,31.2
2022-12-20T04:10:13.787Z,31.1
2022-12-20T04:11:21.048Z,32.4
2022-12-20T04:12:28.222Z,29.7
2022-12-20T04:13:35.515Z,30.3
2022-12-20T04:14:42.670Z,28.7
2022-12-20T04:15:49.616Z,28.1
2022-12-20T04:16:56.823Z,30.3
2022-12-20T04:18:03.855Z,31.3
2022-12-20T04:19:11.118Z,30.6
2022-12-20T04:20:18.578Z,29.4
2022-12-20T04:21:25.685Z,29.5
2022-12-20T04:22:33.727Z,29
2022-12-20T04:23:41.107Z,30.3
2022-12-20T04:24:48.146Z,26.9
2022-12-20T04:25:55.990Z,29.5
2022-12-20T04:27:03.643Z,27.9
2022-12-20T04:28:11.311Z,28.8
2022-12-20T04:29:18.601Z,29
2022-12-20T04:30:25.897Z,29.8
2022-12-20T04:31:33.130Z,28.4
2022-12-20T04:32:40.224Z,28.6
2022-12-20T04:33:50.041Z,29.7
2022-12-20T04:34:57.390Z,28.5
2022-12-20T04:36:04.337Z,29.1
2022-12-20T04:37:11.491Z,28.3
2022-12-20T04:38:18.817Z,30.2
2022-12-20T04:39:25.865Z,29.1
2022-12-20T04:40:34.215Z,28.5
2022-12-20T04:41:42.063Z,28.8
2022-12-20T04:42:50.121Z,29.1
2022-12-20T04:43:57.467Z,28.8
2022-12-20T04:45:04.793Z,29
2022-12-20T04:46:12.403Z,28.2
2022-12-20T04:47:19.900Z,32.5
2022-12-20T04:49:35.226Z,30
2022-12-20T04:50:42.519Z,30.6
2022-12-20T04:51:52.719Z,29
2022-12-20T04:52:59.862Z,30
2022-12-20T04:54:12.439Z,29.9
2022-12-20T04:55:20.107Z,27.4
2022-12-20T04:56:28.558Z,27.1
2022-12-20T04:57:35.931Z,26.8
2022-12-20T04:58:43.390Z,27.7
2022-12-20T04:59:50.714Z,32.9
2022-12-20T05:00:58.299Z,29.1
2022-12-20T05:02:06.822Z,27.1
2022-12-20T05:03:13.797Z,29
2022-12-20T05:04:23.884Z,30.1
2022-12-20T05:05:30.932Z,28.9
2022-12-20T05:06:38.190Z,27.6
2022-12-20T05:07:45.181Z,28.1
2022-12-20T05:08:53.315Z,28
2022-12-20T05:10:01.864Z,29.8
2022-12-20T05:11:09.125Z,29.8
2022-12-20T05:12:16.635Z,28.3
2022-12-20T05:13:23.804Z,29.4
2022-12-20T05:14:30.959Z,27.6
2022-12-20T05:15:39.235Z,29.3
2022-12-20T05:16:46.225Z,34.8
2022-12-20T05:17:53.359Z,28.4
2022-12-20T05:19:03.557Z,29.3
2022-12-20T05:20:10.579Z,30.7
2022-12-20T05:21:17.726Z,32.5
2022-12-20T05:22:29.950Z,28.6
2022-12-20T05:23:42.225Z,29.7
2022-12-20T05:24:56.642Z,31.6
2022-12-20T05:26:09.261Z,30.7
2022-12-20T05:27:21.351Z,30.2
2022-12-20T05:28:28.545Z,28.6
2022-12-20T05:29:35.703Z,28
2022-12-20T05:30:42.903Z,31
2022-12-20T05:31:50.724Z,27.7
2022-12-20T05:32:57.935Z,29.4
2022-12-20T05:34:05.195Z,28.3
2022-12-20T05:35:13.435Z,32.2
2022-12-20T05:36:20.375Z,31.7
2022-12-20T05:37:27.670Z,31
2022-12-20T05:38:35.738Z,29.1
2022-12-20T05:39:43.647Z,29.7
2022-12-20T05:40:50.860Z,31.1
2022-12-20T05:41:58.951Z,31
2022-12-20T05:43:07.498Z,27.4
2022-12-20T05:44:14.751Z,30.7
2022-12-20T05:45:21.957Z,32.1
2022-12-20T05:46:30.073Z,29.1
2022-12-20T05:47:37.210Z,30.6
2022-12-20T05:48:44.319Z,29.5
2022-12-20T05:49:51.370Z,31.4
2022-12-20T05:50:58.892Z,32.9
2022-12-20T05:52:06.167Z,28.9
2022-12-20T05:53:14.290Z,32.2
2022-12-20T05:54:21.647Z,32.2
2022-12-20T05:55:28.687Z,30.5
2022-12-20T05:56:36.627Z,31
2022-12-20T05:57:43.757Z,29.9
2022-12-20T05:58:51.080Z,29.9
2022-12-20T05:59:58.512Z,32.1
2022-12-20T06:01:05.594Z,33.7
2022-12-20T06:02:13.237Z,32.4
2022-12-20T06:03:20.045Z,29.8
2022-12-20T06:04:27.043Z,31.9
2022-12-20T06:05:35.809Z,31.8
2022-12-20T06:06:42.925Z,34.5
2022-12-20T06:07:49.827Z,33.1
2022-12-20T06:08:57.409Z,31.1
2022-12-20T06:10:04.882Z,33.4
2022-12-20T06:11:12.369Z,34.1
2022-12-20T06:12:19.429Z,33.8
2022-12-20T06:13:26.516Z,34.5
2022-12-20T06:14:34.075Z,32.3
2022-12-20T06:15:41.556Z,30
2022-12-20T06:16:49.102Z,33.2
2022-12-20T06:17:56.486Z,30.1
2022-12-20T06:19:04.711Z,34
2022-12-20T06:20:12.010Z,32.2
2022-12-20T06:21:19.314Z,31.8
2022-12-20T06:22:26.570Z,31.9
2022-12-20T06:23:33.750Z,33.3
2022-12-20T06:24:46.100Z,34.1
2022-12-20T06:25:49.184Z,31.8
2022-12-20T06:26:56.992Z,31.3
2022-12-20T06:28:04.441Z,33
2022-12-20T06:29:11.703Z,33.2
2022-12-20T06:30:20.151Z,36.5
2022-12-20T06:31:28.489Z,35
2022-12-20T06:32:35.530Z,34.3
2022-12-20T06:33:43.325Z,32.1
2022-12-20T06:34:50.603Z,32.2
2022-12-20T06:35:57.557Z,33.7
2022-12-20T06:37:04.907Z,31.8
2022-12-20T06:38:12.038Z,30.5
2022-12-20T06:39:18.966Z,30
2022-12-20T06:40:26.091Z,35.7
2022-12-20T06:41:34.259Z,34.9
2022-12-20T06:42:41.544Z,32.2
2022-12-20T06:43:49.465Z,32.2
2022-12-20T06:44:56.547Z,34.1
2022-12-20T06:46:03.833Z,36.8
2022-12-20T06:47:10.767Z,32.8
2022-12-20T06:48:18.771Z,32.6
2022-12-20T06:49:26.881Z,33.5
2022-12-20T06:50:34.184Z,31.7
2022-12-20T06:51:41.360Z,32.8
2022-12-20T06:52:48.391Z,32
2022-12-20T06:53:55.527Z,32
2022-12-20T06:55:03.425Z,33.1
2022-12-20T06:56:10.922Z,32.1
2022-12-20T06:57:18.188Z,34.6
2022-12-20T06:58:26.243Z,35.1
2022-12-20T06:59:33.529Z,33.2
2022-12-20T07:00:40.844Z,32.5
2022-12-20T07:01:48.631Z,37.5
2022-12-20T07:02:55.631Z,33.5
2022-12-20T07:04:02.631Z,34.7
2022-12-20T07:05:09.780Z,31.8
2022-12-20T07:06:16.893Z,32.3
2022-12-20T07:07:24.032Z,34.4
2022-12-20T07:08:31.102Z,31.6
2022-12-20T07:09:38.545Z,36.5
2022-12-20T07:10:45.847Z,40.3
2022-12-20T07:11:52.943Z,36.1
2022-12-20T07:13:00.278Z,35.2
2022-12-20T07:14:09.053Z,32.7
2022-12-20T07:15:16.522Z,34.8
2022-12-20T07:16:23.629Z,39.5
2022-12-20T07:17:30.807Z,35.2
2022-12-20T07:18:37.852Z,36.5
2022-12-20T07:19:50.435Z,37.3
2022-12-20T07:20:51.922Z,34
2022-12-20T07:21:59.150Z,36.8
2022-12-20T07:23:07.320Z,36.5
2022-12-20T07:24:14.390Z,38.8
2022-12-20T07:25:22.396Z,40.8
2022-12-20T07:26:30.802Z,41.1
2022-12-20T07:27:38.950Z,43
2022-12-20T07:28:46.420Z,37.9
2022-12-20T07:29:55.026Z,38.3
2022-12-20T07:31:02.171Z,33.9
2022-12-20T07:32:10.219Z,39.7
2022-12-20T07:33:18.510Z,37.1
2022-12-20T07:34:25.641Z,38.9
2022-12-20T07:35:32.651Z,37.5
2022-12-20T07:36:40.735Z,41.1
2022-12-20T07:37:47.882Z,35.7
2022-12-20T07:38:55.018Z,37
2022-12-20T07:40:02.548Z,37.8
2022-12-20T07:41:09.784Z,39.6
2022-12-20T07:42:17.111Z,33.9
2022-12-20T07:43:24.060Z,38.4
2022-12-20T07:44:32.308Z,36.2
2022-12-20T07:45:39.485Z,38.4
2022-12-20T07:46:46.477Z,36.3
2022-12-20T07:47:54.617Z,36.9
2022-12-20T07:49:01.990Z,36.4
2022-12-20T07:50:08.945Z,31.3
2022-12-20T07:51:16.188Z,35.5
2022-12-20T07:52:28.932Z,34.2
2022-12-20T07:53:36.895Z,38.8
2022-12-20T07:54:44.101Z,33.5
2022-12-20T07:55:54.654Z,41.4
2022-12-20T07:57:02.731Z,35.9
2022-12-20T07:58:10.063Z,32.5
2022-12-20T07:59:17.207Z,35.3
2022-12-20T08:00:24.164Z,36
2022-12-20T08:01:31.681Z,37
2022-12-20T08:02:39.523Z,32.9
2022-12-20T08:03:57.838Z,34.3
2022-12-20T08:05:08.912Z,35.2
2022-12-20T08:06:16.434Z,32.2
2022-12-20T08:07:24.819Z,31.5
2022-12-20T08:08:32.778Z,31.9
2022-12-20T08:09:40.029Z,33.1
2022-12-20T08:10:48.213Z,31.4
2022-12-20T08:11:55.421Z,34.1
2022-12-20T08:13:02.529Z,33.2
2022-12-20T08:14:09.692Z,31.2
2022-12-20T08:15:16.924Z,31.8
2022-12-20T08:16:24.530Z,31.3
2022-12-20T08:17:32.230Z,32.5
2022-12-20T08:18:39.095Z,31.1
2022-12-20T08:19:46.112Z,31.5
2022-12-20T08:20:53.500Z,30
2022-12-20T08:22:01.331Z,30.9
2022-12-20T08:23:09.585Z,30
2022-12-20T08:24:18.321Z,30.6
2022-12-20T08:25:34.593Z,32.4
2022-12-20T08:26:38.654Z,30.8
2022-12-20T08:27:45.696Z,30.6
2022-12-20T08:28:54.042Z,32.6
2022-12-20T08:30:02.118Z,31.3
2022-12-20T08:31:10.173Z,32.9
2022-12-20T08:32:17.319Z,30.4
2022-12-20T08:33:24.498Z,32.4
2022-12-20T08:34:33.189Z,31.5
2022-12-20T08:35:41.130Z,33.8
2022-12-20T08:36:48.462Z,32.4
2022-12-20T08:37:55.538Z,32.4
2022-12-20T08:39:02.681Z,32.2
2022-12-20T08:40:09.768Z,30.8
2022-12-20T08:41:17.064Z,31.4
2022-12-20T08:42:24.922Z,29.9
2022-12-20T08:43:32.645Z,32.3
2022-12-20T08:44:40.037Z,27.9
2022-12-20T08:45:48.687Z,30.1
2022-12-20T08:46:56.686Z,31.1
2022-12-20T08:48:03.864Z,30.9
2022-12-20T08:49:11.237Z,29.1
2022-12-20T08:50:19.435Z,28.3
2022-12-20T08:51:26.885Z,30
2022-12-20T08:52:34.226Z,29.3
2022-12-20T08:53:41.558Z,28.6
2022-12-20T08:54:48.557Z,28.1
2022-12-20T08:55:56.191Z,31
2022-12-20T08:57:14.394Z,30.1
2022-12-20T08:58:21.976Z,30.1
2022-12-20T08:59:30.331Z,28.4
2022-12-20T09:00:37.781Z,29.7
2022-12-20T09:01:46.171Z,31.2
2022-12-20T09:02:54.500Z,33.1
2022-12-20T09:04:01.594Z,29.2
2022-12-20T09:05:10.270Z,32.7
2022-12-20T09:06:17.883Z,28.9
2022-12-20T09:07:26.232Z,29.3
2022-12-20T09:08:34.521Z,31.9
2022-12-20T09:09:41.534Z,32.3
2022-12-20T09:10:49.434Z,29.2
2022-12-20T09:11:58.958Z,33.1
2022-12-20T09:13:07.433Z,32.1
2022-12-20T09:14:14.710Z,29.3
2022-12-20T09:15:22.641Z,30.2
2022-12-20T09:16:29.811Z,30.2
2022-12-20T09:17:37.975Z,30.4
2022-12-20T09:18:45.622Z,32.6
2022-12-20T09:19:53.264Z,31
2022-12-20T09:21:00.518Z,27.4
2022-12-20T09:22:08.358Z,31.5
2022-12-20T09:23:15.984Z,29.3
2022-12-20T09:24:23.663Z,30.9
2022-12-20T09:25:30.806Z,29.9
2022-12-20T09:26:38.124Z,31.5
2022-12-20T09:27:46.962Z,27.1
2022-12-20T09:28:56.900Z,29.2
2022-12-20T09:30:03.885Z,30.4
2022-12-20T09:31:12.727Z,28.3
2022-12-20T09:32:20.197Z,31.1
2022-12-20T09:33:28.296Z,30.6
2022-12-20T09:34:37.496Z,29.2
2022-12-20T09:35:45.084Z,30
2022-12-20T09:36:53.293Z,27.3
2022-12-20T09:38:00.985Z,29.8
2022-12-20T09:39:08.007Z,27.8
2022-12-20T09:40:16.242Z,28.8
2022-12-20T09:41:24.161Z,28.8
2022-12-20T09:42:33.994Z,32
2022-12-20T09:43:41.242Z,29.3
2022-12-20T09:44:48.369Z,30.4
2022-12-20T09:45:55.788Z,30
2022-12-20T09:47:08.362Z,28.6
2022-12-20T09:48:15.548Z,29.2
2022-12-20T09:49:22.844Z,29.8
2022-12-20T09:50:32.829Z,29.3
2022-12-20T09:51:46.058Z,28
2022-12-20T09:52:58.216Z,29.7
2022-12-20T09:54:11.109Z,29
2022-12-20T09:55:25.260Z,32.3
2022-12-20T09:56:36.836Z,28.3
2022-12-20T09:57:52.269Z,31.9
2022-12-20T09:59:09.915Z,31.7
2022-12-20T10:00:19.001Z,30.4
2022-12-20T10:01:31.331Z,29
2022-12-20T10:02:56.950Z,33.7
2022-12-20T10:03:43.956Z,30.9
2022-12-20T10:04:51.416Z,33.7
2022-12-20T10:05:58.559Z,32.5
2022-12-20T10:07:16.317Z,31.9
2022-12-20T10:08:29.592Z,33.6
2022-12-20T10:09:39.412Z,35.2
2022-12-20T10:10:54.658Z,29.3
2022-12-20T10:12:14.270Z,28.1
2022-12-20T10:13:33.081Z,28.8
2022-12-20T10:14:46.141Z,29.9
2022-12-20T10:16:03.377Z,30
2022-12-20T10:17:20.920Z,32.4
2022-12-20T10:18:38.507Z,29.9
2022-12-20T10:19:55.146Z,27.1
2022-12-20T10:21:07.661Z,29.1
2022-12-20T10:22:18.253Z,29.7
2022-12-20T10:23:32.910Z,29.5
2022-12-20T10:24:42.122Z,27.2
2022-12-20T10:25:49.141Z,29.1
2022-12-20T10:26:57.427Z,30
2022-12-20T10:28:17.603Z,30.1
2022-12-20T10:29:25.428Z,30.4
2022-12-20T10:30:33.671Z,32.3
2022-12-20T10:31:41.742Z,31.3
2022-12-20T10:32:48.788Z,33.7
2022-12-20T10:33:56.428Z,34
2022-12-20T10:35:03.870Z,30.8
2022-12-20T10:36:15.056Z,34.7
2022-12-20T10:37:22.597Z,35.1
2022-12-20T10:38:30.309Z,34
2022-12-20T10:39:38.960Z,35.3
2022-12-20T10:41:19.225Z,34.5
2022-12-20T10:42:04.449Z,32.7
2022-12-20T10:43:12.092Z,35
2022-12-20T10:44:21.895Z,32.5
2022-12-20T10:45:35.769Z,30.2
2022-12-20T10:46:39.776Z,30.2
2022-12-20T10:47:49.835Z,30.6
2022-12-20T10:48:57.164Z,29.8
2022-12-20T10:50:04.097Z,32.6
2022-12-20T10:51:15.687Z,33.6
2022-12-20T10:52:22.031Z,34.4
2022-12-20T10:53:29.010Z,31.4
2022-12-20T10:54:36.328Z,34.7
2022-12-20T10:55:43.303Z,33.5
2022-12-20T10:56:50.419Z,31.3
2022-12-20T10:58:00.805Z,31.4
2022-12-20T10:59:07.671Z,33.7
2022-12-20T11:00:20.896Z,34.7
2022-12-20T11:01:30.705Z,31.1
2022-12-20T11:02:42.246Z,36.5
2022-12-20T11:03:46.585Z,34.2
2022-12-20T11:05:01.358Z,35.6
2022-12-20T11:06:14.003Z,34.2
2022-12-20T11:07:21.093Z,36
2022-12-20T11:08:40.738Z,36.1
2022-12-20T11:09:36.651Z,33.1
2022-12-20T11:10:43.974Z,33.3
2022-12-20T11:11:52.435Z,32.5
2022-12-20T11:13:07.765Z,34.2
2022-12-20T11:14:23.013Z,32
2022-12-20T11:15:33.629Z,34.1
2022-12-20T11:16:38.173Z,33.2
2022-12-20T11:17:44.965Z,30.1
2022-12-20T11:18:52.284Z,30.3
2022-12-20T11:19:59.323Z,30.9
2022-12-20T11:21:17.765Z,29.7
2022-12-20T11:22:25.248Z,29.2
2022-12-20T11:23:35.403Z,32
2022-12-20T11:24:45.216Z,39.2
2022-12-20T11:26:00.372Z,39.2
2022-12-20T11:27:17.546Z,29.8
2022-12-20T11:28:27.878Z,30.2
2022-12-20T11:29:44.028Z,31.2
2022-12-20T11:30:56.283Z,31.8
2022-12-20T11:32:03.420Z,30.5
2022-12-20T11:33:18.172Z,31.2
2022-12-20T11:34:33.181Z,27.9
2022-12-20T11:35:45.271Z,31.9
2022-12-20T11:37:02.410Z,31.6
2022-12-20T11:38:12.915Z,31.9
2022-12-20T11:39:31.487Z,30.2
2022-12-20T11:40:46.707Z,31.5
2022-12-20T11:42:00.912Z,32.1
2022-12-20T11:43:14.991Z,30.7
2022-12-20T11:44:32.548Z,31.9
2022-12-20T11:45:47.685Z,31.3
2022-12-20T11:47:05.153Z,33
2022-12-20T11:48:12.701Z,30.2
2022-12-20T11:49:26.292Z,31.1
2022-12-20T11:50:43.743Z,30.2
2022-12-20T11:52:01.036Z,28.5
2022-12-20T11:53:08.267Z,31
2022-12-20T11:54:21.658Z,30.8
2022-12-20T11:55:36.371Z,32.5
2022-12-20T11:56:45.069Z,30.8
2022-12-20T11:58:17.290Z,29.8
2022-12-20T11:59:04.679Z,29.6
2022-12-20T12:00:22.640Z,31.8
2022-12-20T12:01:30.511Z,31.8
2022-12-20T12:02:46.321Z,33.5
2022-12-20T12:04:00.030Z,33.4
2022-12-20T12:05:11.228Z,36.3
2022-12-20T12:06:18.066Z,34.6
2022-12-20T12:07:25.115Z,32.9
2022-12-20T12:08:32.564Z,34
2022-12-20T12:09:44.688Z,34.1
2022-12-20T12:10:57.600Z,34.2
2022-12-20T12:12:07.057Z,31.8
2022-12-20T12:13:12.024Z,32.3
2022-12-20T12:14:22.707Z,32.1
2022-12-20T12:15:37.974Z,33.8
2022-12-20T12:16:56.156Z,34.4
2022-12-20T12:18:03.363Z,36.6
2022-12-20T12:19:10.449Z,31.2
2022-12-20T12:20:18.494Z,31.6
2022-12-20T12:21:26.882Z,31.9
2022-12-20T12:22:36.451Z,30.9
2022-12-20T12:23:43.591Z,28.8
2022-12-20T12:24:55.891Z,29.8
2022-12-20T12:26:03.132Z,31.7
2022-12-20T12:27:15.854Z,31
2022-12-20T12:28:25.741Z,31.3
2022-12-20T12:29:32.916Z,29.7
2022-12-20T12:30:40.919Z,29.8
2022-12-20T12:31:48.447Z,30.1
2022-12-20T12:33:00.999Z,31.7
2022-12-20T12:34:08.487Z,30.4
2022-12-20T12:35:20.727Z,32.7
2022-12-20T12:36:38.213Z,32.9
2022-12-20T12:37:53.309Z,30.1
2022-12-20T12:39:10.528Z,30.7
2022-12-20T12:40:28.607Z,31.4
2022-12-20T12:41:46.311Z,32.7
2022-12-20T12:42:58.460Z,32.1
2022-12-20T12:44:10.711Z,30.6
2022-12-20T12:45:24.169Z,33.7
2022-12-20T12:46:36.937Z,31.3
2022-12-20T12:47:44.955Z,32
2022-12-20T12:48:57.507Z,31.6
2022-12-20T12:50:08.110Z,32.5
2022-12-20T12:51:15.940Z,30.8
2022-12-20T12:52:32.288Z,31.3
2022-12-20T12:53:41.430Z,30.1
2022-12-20T12:54:54.180Z,31.7
2022-12-20T12:56:19.592Z,31.2
2022-12-20T12:57:19.768Z,30.4
2022-12-20T12:58:27.055Z,30.9
2022-12-20T12:59:34.272Z,33.8
2022-12-20T13:00:41.184Z,31
2022-12-20T13:01:54.589Z,29.7
2022-12-20T13:03:07.394Z,28.5
2022-12-20T13:04:17.607Z,30
2022-12-20T13:05:30.291Z,30.7
2022-12-20T13:06:38.815Z,31.9
2022-12-20T13:07:45.880Z,28
2022-12-20T13:08:52.999Z,29.9
2022-12-20T13:10:01.016Z,27.3
2022-12-20T13:11:13.348Z,29.8
2022-12-20T13:12:20.622Z,29.5
2022-12-20T13:13:37.741Z,30.4
2022-12-20T13:14:45.244Z,28.8
2022-12-20T13:15:52.639Z,31.1
2022-12-20T13:17:11.896Z,30.6
2022-12-20T13:18:07.328Z,31.7
2022-12-20T13:19:14.620Z,32.7
2022-12-20T13:20:31.479Z,34.3
2022-12-20T13:21:38.936Z,34.6
2022-12-20T13:22:49.976Z,34.2
2022-12-20T13:24:07.460Z,34.3
2022-12-20T13:25:28.159Z,32.7
2022-12-20T13:26:34.035Z,36.2
2022-12-20T13:27:46.568Z,33.8
2022-12-20T13:28:56.422Z,34.1
2022-12-20T13:30:03.347Z,34.5
2022-12-20T13:31:10.788Z,34.8
2022-12-20T13:32:19.384Z,37.4
2022-12-20T13:33:37.412Z,34.5
2022-12-20T13:34:47.951Z,34.7
2022-12-20T13:35:58.463Z,33.9
2022-12-20T13:37:07.465Z,33
2022-12-20T13:38:25.061Z,33.1
2022-12-20T13:39:42.645Z,33.6
2022-12-20T13:40:49.720Z,33.3
2022-12-20T13:42:01.448Z,34.7
2022-12-20T13:43:16.872Z,37.5
2022-12-20T13:44:24.086Z,33.6
2022-12-20T13:45:36.708Z,33.7
2022-12-20T13:46:43.743Z,30.7
2022-12-20T13:48:00.013Z,34.5
2022-12-20T13:49:07.079Z,33
2022-12-20T13:50:15.272Z,33.4
2022-12-20T13:51:30.252Z,34.4
2022-12-20T13:52:44.842Z,33.4
2022-12-20T13:53:52.681Z,32.6
2022-12-20T13:55:00.150Z,29
2022-12-20T13:56:07.112Z,31.8
2022-12-20T13:57:25.671Z,33
2022-12-20T13:58:33.180Z,30.6
2022-12-20T13:59:42.923Z,30.8
2022-12-20T14:00:53.022Z,30.5
2022-12-20T14:02:08.321Z,29.7
2022-12-20T14:03:22.637Z,29
2022-12-20T14:04:30.901Z,32.5
2022-12-20T14:05:44.282Z,32.9
2022-12-20T14:06:51.556Z,35.2
2022-12-20T14:08:02.353Z,32.7
2022-12-20T14:09:19.304Z,34.5
2022-12-20T14:10:35.450Z,31.8
2022-12-20T14:11:44.935Z,30.6
2022-12-20T14:12:52.096Z,33.8
2022-12-20T14:13:59.391Z,33
2022-12-20T14:15:06.954Z,34
2022-12-20T14:16:24.275Z,32.9
2022-12-20T14:17:32.353Z,33.2
2022-12-20T14:18:39.488Z,32.5
2022-12-20T14:19:46.607Z,33.9
2022-12-20T14:21:01.793Z,34.4
2022-12-20T14:22:09.001Z,33.4
2022-12-20T14:23:16.033Z,35.3
2022-12-20T14:24:23.215Z,33.7
2022-12-20T14:25:30.292Z,32.4
2022-12-20T14:26:45.944Z,36.2
2022-12-20T14:27:53.498Z,33.9
2022-12-20T14:29:00.885Z,34.5
2022-12-20T14:30:08.021Z,32.9
2022-12-20T14:31:25.436Z,32.7
2022-12-20T14:32:35.032Z,33
2022-12-20T14:33:42.302Z,34.7
2022-12-20T14:34:49.413Z,35.1
2022-12-20T14:35:56.471Z,36
2022-12-20T14:37:21.996Z,35.7
2022-12-20T14:38:37.100Z,37.2
2022-12-20T14:39:45.269Z,39.4
2022-12-20T14:40:57.651Z,34.2
2022-12-20T14:42:04.712Z,35.3
2022-12-20T14:43:11.750Z,35.8
2022-12-20T14:44:18.819Z,33.9
2022-12-20T14:45:26.907Z,32.1
2022-12-20T14:46:34.584Z,33.2
2022-12-20T14:47:42.780Z,33.9
2022-12-20T14:48:58.396Z,35.7
2022-12-20T14:50:15.928Z,35.8
2022-12-20T14:51:23.073Z,36.3
2022-12-20T14:52:30.137Z,35.7
2022-12-20T14:53:37.403Z,36.7
2022-12-20T14:55:58.769Z,35.5
2022-12-20T14:57:08.717Z,34.6
2022-12-20T14:58:26.497Z,35.1
2022-12-20T14:59:33.998Z,37.8
2022-12-20T15:00:41.003Z,39
2022-12-20T15:01:49.149Z,36.1
2022-12-20T15:02:56.921Z,36.6
2022-12-20T15:04:05.149Z,36.7
2022-12-20T15:05:22.616Z,31.1
2022-12-20T15:06:34.839Z,36.1
2022-12-20T15:07:45.716Z,36.1
2022-12-20T15:08:53.024Z,36.6
2022-12-20T15:10:01.392Z,38.1
2022-12-20T15:11:09.018Z,37.2
2022-12-20T15:12:16.340Z,38.9
2022-12-20T15:13:24.024Z,36.5
2022-12-20T15:14:33.920Z,35.6
2022-12-20T15:15:41.113Z,37.4
2022-12-20T15:16:48.219Z,39.8
2022-12-20T15:17:56.575Z,37.5
2022-12-20T15:19:04.963Z,39.5
2022-12-20T15:20:12.117Z,39
2022-12-20T15:21:20.086Z,36.1
2022-12-20T15:22:35.254Z,35.4
2022-12-20T15:23:42.877Z,36.2
2022-12-20T15:24:49.947Z,37.6
2022-12-20T15:25:56.956Z,34.1
2022-12-20T15:27:04.204Z,33.5